createdAt,value
2019-03-04T00:04:30.971Z,99.90
2019-03-04T00:09:35.827Z,99.90
2019-03-04T00:14:40.581Z,99.90
2019-03-04T00:19:45.535Z,99.90
2019-03-04T00:24:52.225Z,99.90
2019-03-04T00:29:56.932Z,99.90
2019-03-04T00:35:03.119Z,99.90
2019-03-04T00:40:13.292Z,99.90
2019-03-04T00:45:18.149Z,99.90
2019-03-04T00:50:23.017Z,99.90
2019-03-04T00:55:27.959Z,99.90
2019-03-04T01:00:32.820Z,99.90
2019-03-04T01:05:38.487Z,99.90
2019-03-04T01:10:43.528Z,99.90
2019-03-04T01:15:48.301Z,99.90
2019-03-04T01:20:53.158Z,99.90
2019-03-04T01:25:58.022Z,99.90
2019-03-04T01:31:02.804Z,99.90
2019-03-04T01:36:08.425Z,99.90
2019-03-04T01:41:13.215Z,99.90
2019-03-04T01:46:18.062Z,99.90
2019-03-04T01:51:22.907Z,99.90
2019-03-04T01:56:27.692Z,99.90
2019-03-04T02:01:32.536Z,99.90
2019-03-04T02:06:37.371Z,99.90
2019-03-04T02:11:42.422Z,99.90
2019-03-04T02:16:47.592Z,99.90
2019-03-04T02:21:52.547Z,99.90
2019-03-04T02:26:57.391Z,99.90
2019-03-04T02:32:02.236Z,99.90
2019-03-04T02:37:07.466Z,99.90
2019-03-04T02:42:12.753Z,99.90
2019-03-04T02:47:17.804Z,99.90
2019-03-04T02:52:22.674Z,99.90
2019-03-04T02:57:27.555Z,99.90
2019-03-04T03:02:32.678Z,99.90
2019-03-04T03:07:37.457Z,99.90
2019-03-04T03:12:42.312Z,99.90
2019-03-04T03:17:47.150Z,99.90
2019-03-04T03:22:51.995Z,99.90
2019-03-04T03:27:56.848Z,99.90
2019-03-04T03:33:01.642Z,99.90
2019-03-04T03:38:06.581Z,99.90
2019-03-04T03:43:11.635Z,99.90
2019-03-04T03:48:16.486Z,99.90
2019-03-04T03:53:21.337Z,99.90
2019-03-04T03:58:26.170Z,99.90
2019-03-04T04:03:30.954Z,99.90
2019-03-04T04:08:35.808Z,99.90
2019-03-04T04:13:40.605Z,99.90
2019-03-04T04:18:45.461Z,99.90
2019-03-04T04:23:50.257Z,99.90
2019-03-04T04:28:56.684Z,99.90
2019-03-04T04:34:01.489Z,99.90
2019-03-04T04:39:07.057Z,99.90
2019-03-04T04:44:12.169Z,99.90
2019-03-04T04:49:17.015Z,99.90
2019-03-04T04:54:21.879Z,99.90
2019-03-04T04:59:26.720Z,99.90
2019-03-04T05:04:31.574Z,99.90
2019-03-04T05:09:36.360Z,99.90
2019-03-04T05:14:41.234Z,99.90
2019-03-04T05:19:46.958Z,99.90
2019-03-04T05:24:51.876Z,99.50
2019-03-04T05:29:56.606Z,99.20
2019-03-04T05:35:01.308Z,98.70
2019-03-04T05:40:15.152Z,98.50
2019-03-04T05:45:20.561Z,98.40
2019-03-04T05:50:26.225Z,98.40
2019-03-04T05:55:31.011Z,98.30
2019-03-04T06:00:43.285Z,98.10
2019-03-04T06:05:48.141Z,98.00
2019-03-04T06:10:52.912Z,97.80
2019-03-04T06:15:57.757Z,97.50
2019-03-04T06:21:02.627Z,97.10
2019-03-04T06:26:07.485Z,96.70
2019-03-04T06:31:12.274Z,96.80
2019-03-04T06:36:17.121Z,96.50
2019-03-04T06:41:22.092Z,96.20
2019-03-04T06:46:28.769Z,96.20
2019-03-04T06:51:38.494Z,96.20
2019-03-04T06:56:49.072Z,96.40
2019-03-04T07:02:05.469Z,96.30
2019-03-04T07:07:10.334Z,95.60
2019-03-04T07:12:15.677Z,95.60
2019-03-04T07:17:21.992Z,95.30
2019-03-04T07:22:26.807Z,94.80
2019-03-04T07:27:31.690Z,94.40
2019-03-04T07:32:36.548Z,93.80
2019-03-04T07:37:42.147Z,93.40
2019-03-04T07:42:47.785Z,92.60
2019-03-04T07:47:52.625Z,92.40
2019-03-04T07:52:58.291Z,91.50
2019-03-04T07:58:03.194Z,91.20
2019-03-04T08:03:08.066Z,90.80
2019-03-04T08:08:13.499Z,90.40
2019-03-04T08:13:35.969Z,90.20
2019-03-04T08:18:40.760Z,88.80
2019-03-04T08:23:45.556Z,88.40
2019-03-04T08:28:50.421Z,87.10
2019-03-04T08:33:55.330Z,87.70
2019-03-04T08:39:00.267Z,88.60
2019-03-04T08:44:05.352Z,87.80
2019-03-04T08:49:10.193Z,85.60
2019-03-04T08:54:15.021Z,84.70
2019-03-04T08:59:19.852Z,84.30
2019-03-04T09:04:24.624Z,84.80
2019-03-04T09:09:29.498Z,82.20
2019-03-04T09:14:34.353Z,81.40
2019-03-04T09:19:39.281Z,81.40
2019-03-04T09:24:44.126Z,81.00
2019-03-04T09:29:48.957Z,78.80
2019-03-04T09:34:53.745Z,78.70
2019-03-04T09:39:58.581Z,78.50
2019-03-04T09:45:04.086Z,77.90
2019-03-04T09:50:12.093Z,77.90
2019-03-04T09:55:18.228Z,76.10
2019-03-04T10:00:37.857Z,75.80
2019-03-04T10:06:05.319Z,75.80
2019-03-04T10:11:13.093Z,78.50
2019-03-04T10:16:44.596Z,78.40
2019-03-04T10:21:55.617Z,79.20
2019-03-04T10:27:21.998Z,77.70
2019-03-04T10:32:38.646Z,78.50
2019-03-04T10:38:10.478Z,78.40
2019-03-04T10:43:33.688Z,78.50
2019-03-04T10:48:38.553Z,79.20
2019-03-04T10:53:43.408Z,80.10
2019-03-04T10:58:48.369Z,82.00
2019-03-04T11:03:54.111Z,81.30
2019-03-04T11:08:58.896Z,83.40
2019-03-04T11:14:04.052Z,84.20
2019-03-04T11:19:08.930Z,85.90
2019-03-04T11:24:15.280Z,90.00
2019-03-04T11:29:20.868Z,89.50
2019-03-04T11:34:25.721Z,91.10
2019-03-04T11:39:34.903Z,91.30
2019-03-04T11:44:39.768Z,91.00
2019-03-04T11:49:44.555Z,90.00
2019-03-04T11:54:49.404Z,88.50
2019-03-04T11:59:54.333Z,87.50
2019-03-04T12:05:00.747Z,86.60
2019-03-04T12:10:08.522Z,84.50
2019-03-04T12:15:18.901Z,82.30
2019-03-04T12:20:23.732Z,81.60
2019-03-04T12:25:28.593Z,80.80
2019-03-04T12:30:33.419Z,80.50
2019-03-04T12:35:38.256Z,80.70
2019-03-04T12:40:43.012Z,80.90
2019-03-04T12:45:47.851Z,81.80
2019-03-04T12:50:52.694Z,78.80
2019-03-04T12:55:57.530Z,77.50
2019-03-04T13:01:02.531Z,74.50
2019-03-04T13:06:08.933Z,73.20
2019-03-04T13:11:13.761Z,73.60
2019-03-04T13:16:18.517Z,72.00
2019-03-04T13:21:23.272Z,69.80
2019-03-04T13:26:29.412Z,70.50
2019-03-04T13:31:34.657Z,69.30
2019-03-04T13:36:39.495Z,70.40
2019-03-04T13:41:44.320Z,71.10
2019-03-04T13:46:49.148Z,71.70
2019-03-04T13:51:53.981Z,73.00
2019-03-04T13:56:58.917Z,73.40
2019-03-04T14:02:03.779Z,74.10
2019-03-04T14:07:08.894Z,74.00
2019-03-04T14:12:13.799Z,74.70
2019-03-04T14:17:18.728Z,74.80
2019-03-04T14:22:23.769Z,74.50
2019-03-04T14:27:28.692Z,74.40
2019-03-04T14:32:33.521Z,74.50
2019-03-04T14:37:38.353Z,75.00
2019-03-04T14:42:43.713Z,74.90
2019-03-04T14:47:48.718Z,73.90
2019-03-04T14:52:53.472Z,73.90
2019-03-04T14:57:58.428Z,72.50
2019-03-04T15:03:03.194Z,72.60
2019-03-04T15:08:08.296Z,71.10
2019-03-04T15:13:13.149Z,69.90
2019-03-04T15:18:18.153Z,68.10
2019-03-04T15:23:23.011Z,65.80
2019-03-04T15:28:27.961Z,64.40
2019-03-04T15:33:32.803Z,65.50
2019-03-04T15:38:37.651Z,65.10
2019-03-04T15:43:42.721Z,65.70
2019-03-04T15:48:47.655Z,65.70
2019-03-04T15:53:52.487Z,72.70
2019-03-04T15:58:57.308Z,77.60
2019-03-04T16:04:02.072Z,80.40
2019-03-04T16:09:15.980Z,80.60
2019-03-04T16:14:20.818Z,78.80
2019-03-04T16:19:25.643Z,78.10
2019-03-04T16:24:30.475Z,74.60
2019-03-04T16:29:37.329Z,73.50
2019-03-04T16:34:41.692Z,74.40
2019-03-04T16:39:46.548Z,75.70
2019-03-04T16:44:51.388Z,77.10
2019-03-04T16:49:56.144Z,77.50
2019-03-04T16:55:01.319Z,78.00
2019-03-04T17:00:09.097Z,78.10
2019-03-04T17:05:18.449Z,78.70
2019-03-04T17:10:25.337Z,79.90
2019-03-04T17:15:30.185Z,80.40
2019-03-04T17:20:35.015Z,81.60
2019-03-04T17:25:39.949Z,82.00
2019-03-04T17:30:44.777Z,82.40
2019-03-04T17:35:49.601Z,82.60
2019-03-04T17:40:54.465Z,82.80
2019-03-04T17:45:59.289Z,82.50
2019-03-04T17:51:25.312Z,82.20
2019-03-04T17:56:30.157Z,81.90
2019-03-04T18:01:35.069Z,78.60
2019-03-04T18:06:39.833Z,76.60
2019-03-04T18:11:44.655Z,75.10
2019-03-04T18:16:49.743Z,74.80
2019-03-04T18:21:54.551Z,74.20
2019-03-04T18:26:59.375Z,73.40
2019-03-04T18:32:12.903Z,73.40
2019-03-04T18:37:26.553Z,73.50
2019-03-04T18:42:37.064Z,73.20
2019-03-04T18:47:47.389Z,71.80
2019-03-04T18:52:53.728Z,69.90
2019-03-04T18:57:58.488Z,68.00
2019-03-04T19:03:03.328Z,66.40
2019-03-04T19:08:08.407Z,64.00
2019-03-04T19:13:13.244Z,63.40
2019-03-04T19:18:18.072Z,61.90
2019-03-04T19:23:22.941Z,62.20
2019-03-04T19:28:27.813Z,62.60
2019-03-04T19:33:34.103Z,61.70
2019-03-04T19:38:38.936Z,62.10
2019-03-04T19:43:43.813Z,61.50
2019-03-04T19:48:48.636Z,61.70
2019-03-04T19:53:53.473Z,61.20
2019-03-04T19:58:58.304Z,61.30
2019-03-04T20:04:03.169Z,62.80
2019-03-04T20:09:08.866Z,62.30
2019-03-04T20:14:13.616Z,67.20
2019-03-04T20:19:20.089Z,73.80
2019-03-04T20:24:25.428Z,77.10
2019-03-04T20:29:30.404Z,76.50
2019-03-04T20:34:35.261Z,78.30
2019-03-04T20:39:40.092Z,81.50
2019-03-04T20:44:46.630Z,85.60
2019-03-04T20:49:51.577Z,86.60
2019-03-04T20:54:56.345Z,85.30
2019-03-04T21:00:01.102Z,83.70
2019-03-04T21:05:08.481Z,82.70
2019-03-04T21:10:14.003Z,82.70
2019-03-04T21:15:20.191Z,82.30
2019-03-04T21:20:24.971Z,83.00
2019-03-04T21:25:44.400Z,83.40
2019-03-04T21:31:13.477Z,84.00
2019-03-04T21:36:26.907Z,85.20
2019-03-04T21:41:37.217Z,86.20
2019-03-04T21:47:02.808Z,87.10
2019-03-04T21:52:20.515Z,87.60
2019-03-04T21:57:37.792Z,88.00
2019-03-04T22:02:51.603Z,88.50
2019-03-04T22:07:56.446Z,88.90
2019-03-04T22:13:01.372Z,89.00
2019-03-04T22:18:06.798Z,89.20
2019-03-04T22:23:11.615Z,89.10
2019-03-04T22:28:16.429Z,89.50
2019-03-04T22:33:21.406Z,90.00
2019-03-04T22:38:26.288Z,89.20
2019-03-04T22:43:31.029Z,88.60
2019-03-04T22:48:35.752Z,89.10
2019-03-04T22:53:40.618Z,89.30
2019-03-04T22:58:45.418Z,89.90
2019-03-04T23:03:50.191Z,89.00
2019-03-04T23:08:54.982Z,88.70
2019-03-04T23:14:08.626Z,89.10
2019-03-04T23:19:13.477Z,88.10
2019-03-04T23:24:18.321Z,88.00
2019-03-04T23:29:23.136Z,87.30
2019-03-04T23:34:27.949Z,86.70
2019-03-04T23:39:32.768Z,86.10
2019-03-04T23:44:37.515Z,86.30
2019-03-04T23:49:42.264Z,86.20
2019-03-04T23:54:47.044Z,85.80
2019-03-04T23:59:51.859Z,85.30
